sensor_id;sensor_type;location;lat;lon;timestamp;P1;durP1;ratioP1;P2;durP2;ratioP2
61570;SDS011;47463;49.884;10.010;2023-02-18T00:00:00;13.1;;;9.6;;
61570;SDS011;47463;49.884;10.010;2023-02-18T00:05:00;14.2;;;9.9;;
61570;SDS011;47463;49.884;10.010;2023-02-18T00:10:00;13.2;;;9.5;;
61570;SDS011;47463;49.884;10.010;2023-02-18T00:15:00;16.8;;;12.3;;
61570;SDS011;47463;49.884;10.010;2023-02-18T00:20:00;13.6;;;10.9;;
61570;SDS011;47463;49.884;10.010;2023-02-18T00:25:00;16.2;;;12.2;;
61570;SDS011;47463;49.884;10.010;2023-02-18T00:30:00;16.2;;;12.2;;
61570;SDS011;47463;49.884;10.010;2023-02-18T00:35:00;18.8;;;13.2;;
61570;SDS011;47463;49.884;10.010;2023-02-18T00:40:00;19.1;;;13.5;;
61570;SDS011;47463;49.884;10.010;2023-02-18T00:45:00;19.1;;;14.3;;
61570;SDS011;47463;49.884;10.010;2023-02-18T00:50:00;20.4;;;14.5;;
61570;SDS011;47463;49.884;10.010;2023-02-18T00:55:00;22;;;16.2;;
61570;SDS011;47463;49.884;10.010;2023-02-18T01:00:00;22;;;16.2;;
61570;SDS011;47463;49.884;10.010;2023-02-18T01:05:00;20.1;;;15.1;;
61570;SDS011;47463;49.884;10.010;2023-02-18T01:10:00;22.2;;;15.4;;
61570;SDS011;47463;49.884;10.010;2023-02-18T01:15:00;19.6;;;14.6;;
61570;SDS011;47463;49.884;10.010;2023-02-18T01:20:00;17.1;;;13.4;;
61570;SDS011;47463;49.884;10.010;2023-02-18T01:25:00;18.3;;;13.8;;
61570;SDS011;47463;49.884;10.010;2023-02-18T01:30:00;18.3;;;13.8;;
61570;SDS011;47463;49.884;10.010;2023-02-18T01:35:00;19.8;;;14;;
61570;SDS011;47463;49.884;10.010;2023-02-18T01:40:00;17.9;;;13.5;;
61570;SDS011;47463;49.884;10.010;2023-02-18T01:45:33;22.1;;;14.9;;
61570;SDS011;47463;49.884;10.010;2023-02-18T01:50:00;22;;;15.2;;
61570;SDS011;47463;49.884;10.010;2023-02-18T01:55:00;18.2;;;13;;
61570;SDS011;47463;49.884;10.010;2023-02-18T02:00:03;18.2;;;13;;
61570;SDS011;47463;49.884;10.010;2023-02-18T02:05:00;17.5;;;12.7;;
61570;SDS011;47463;49.884;10.010;2023-02-18T02:10:00;19.3;;;12.3;;
61570;SDS011;47463;49.884;10.010;2023-02-18T02:15:04;16.1;;;12.3;;
61570;SDS011;47463;49.884;10.010;2023-02-18T02:20:14;17.7;;;12.7;;
61570;SDS011;47463;49.884;10.010;2023-02-18T02:25:02;19.2;;;12.1;;
61570;SDS011;47463;49.884;10.010;2023-02-18T02:35:00;14;;;10;;
61570;SDS011;47463;49.884;10.010;2023-02-18T02:40:02;15.3;;;10.5;;
61570;SDS011;47463;49.884;10.010;2023-02-18T02:45:01;12.1;;;8.2;;
61570;SDS011;47463;49.884;10.010;2023-02-18T02:50:00;11.1;;;7.6;;
61570;SDS011;47463;49.884;10.010;2023-02-18T02:55:00;9.9;;;7.2;;
61570;SDS011;47463;49.884;10.010;2023-02-18T03:00:00;9.9;;;7.2;;
61570;SDS011;47463;49.884;10.010;2023-02-18T03:05:07;8.6;;;6.5;;
61570;SDS011;47463;49.884;10.010;2023-02-18T03:10:11;9.7;;;6.8;;
61570;SDS011;47463;49.884;10.010;2023-02-18T03:15:02;7.7;;;5.3;;
61570;SDS011;47463;49.884;10.010;2023-02-18T03:20:02;9.1;;;4.6;;
61570;SDS011;47463;49.884;10.010;2023-02-18T03:25:00;6;;;4.2;;
61570;SDS011;47463;49.884;10.010;2023-02-18T03:30:00;6;;;4.2;;
61570;SDS011;47463;49.884;10.010;2023-02-18T03:35:01;6.3;;;4.3;;
61570;SDS011;47463;49.884;10.010;2023-02-18T03:40:00;5.7;;;4.3;;
61570;SDS011;47463;49.884;10.010;2023-02-18T03:45:00;5.4;;;4.1;;
61570;SDS011;47463;49.884;10.010;2023-02-18T03:50:00;5;;;3.3;;
61570;SDS011;47463;49.884;10.010;2023-02-18T03:55:00;7.1;;;3.1;;
61570;SDS011;47463;49.884;10.010;2023-02-18T04:00:00;7.1;;;3.1;;
61570;SDS011;47463;49.884;10.010;2023-02-18T04:05:00;4.5;;;2.7;;
61570;SDS011;47463;49.884;10.010;2023-02-18T04:10:00;4.5;;;2.8;;
61570;SDS011;47463;49.884;10.010;2023-02-18T04:15:00;4.7;;;2.8;;
61570;SDS011;47463;49.884;10.010;2023-02-18T04:20:00;6.2;;;3.4;;
61570;SDS011;47463;49.884;10.010;2023-02-18T04:25:00;5.4;;;3.4;;
61570;SDS011;47463;49.884;10.010;2023-02-18T04:30:00;5.4;;;3.4;;
61570;SDS011;47463;49.884;10.010;2023-02-18T04:35:00;6.3;;;3.9;;
61570;SDS011;47463;49.884;10.010;2023-02-18T04:40:00;8.4;;;4.3;;
61570;SDS011;47463;49.884;10.010;2023-02-18T04:45:00;5.8;;;4;;
61570;SDS011;47463;49.884;10.010;2023-02-18T04:50:00;6.9;;;4.2;;
61570;SDS011;47463;49.884;10.010;2023-02-18T04:55:00;7.5;;;4.6;;
61570;SDS011;47463;49.884;10.010;2023-02-18T05:00:00;7.5;;;4.6;;
61570;SDS011;47463;49.884;10.010;2023-02-18T05:05:00;7.4;;;4.7;;
61570;SDS011;47463;49.884;10.010;2023-02-18T05:10:00;8.6;;;4.5;;
61570;SDS011;47463;49.884;10.010;2023-02-18T05:15:00;9.1;;;5.1;;
61570;SDS011;47463;49.884;10.010;2023-02-18T05:20:00;8;;;4.8;;
61570;SDS011;47463;49.884;10.010;2023-02-18T05:25:00;7.3;;;4.3;;
61570;SDS011;47463;49.884;10.010;2023-02-18T05:30:00;7.3;;;4.3;;
61570;SDS011;47463;49.884;10.010;2023-02-18T05:35:00;8.3;;;4.6;;
61570;SDS011;47463;49.884;10.010;2023-02-18T05:40:00;6.5;;;4.4;;
61570;SDS011;47463;49.884;10.010;2023-02-18T05:45:00;7;;;4;;
61570;SDS011;47463;49.884;10.010;2023-02-18T05:50:00;8.9;;;4.6;;
61570;SDS011;47463;49.884;10.010;2023-02-18T05:55:00;8.3;;;5;;
61570;SDS011;47463;49.884;10.010;2023-02-18T06:00:00;8.3;;;5;;
61570;SDS011;47463;49.884;10.010;2023-02-18T06:05:00;8.3;;;5.5;;
61570;SDS011;47463;49.884;10.010;2023-02-18T06:10:00;9;;;6.1;;
61570;SDS011;47463;49.884;10.010;2023-02-18T06:15:00;12.9;;;6.6;;
61570;SDS011;47463;49.884;10.010;2023-02-18T06:20:00;11.3;;;7.2;;
61570;SDS011;47463;49.884;10.010;2023-02-18T06:25:00;12.4;;;7.8;;
61570;SDS011;47463;49.884;10.010;2023-02-18T06:30:00;12.4;;;7.8;;
61570;SDS011;47463;49.884;10.010;2023-02-18T06:35:00;14.6;;;8;;
61570;SDS011;47463;49.884;10.010;2023-02-18T06:40:00;14.3;;;8.7;;
61570;SDS011;47463;49.884;10.010;2023-02-18T06:45:00;14.3;;;9.7;;
61570;SDS011;47463;49.884;10.010;2023-02-18T06:50:00;17.7;;;10;;
61570;SDS011;47463;49.884;10.010;2023-02-18T06:55:00;14.4;;;9.6;;
61570;SDS011;47463;49.884;10.010;2023-02-18T07:00:00;14.4;;;9.6;;
61570;SDS011;47463;49.884;10.010;2023-02-18T07:05:00;15.2;;;9.6;;
61570;SDS011;47463;49.884;10.010;2023-02-18T07:10:00;16.5;;;10.5;;
61570;SDS011;47463;49.884;10.010;2023-02-18T07:15:00;16.2;;;10.9;;
61570;SDS011;47463;49.884;10.010;2023-02-18T07:20:00;20;;;11.1;;
61570;SDS011;47463;49.884;10.010;2023-02-18T07:25:00;18.7;;;11.7;;
61570;SDS011;47463;49.884;10.010;2023-02-18T07:30:00;18.7;;;11.7;;
61570;SDS011;47463;49.884;10.010;2023-02-18T07:35:00;15.5;;;10.7;;
61570;SDS011;47463;49.884;10.010;2023-02-18T07:40:00;16.7;;;10.8;;
61570;SDS011;47463;49.884;10.010;2023-02-18T07:45:00;14.1;;;10.1;;
61570;SDS011;47463;49.884;10.010;2023-02-18T07:50:00;15.4;;;9.5;;
61570;SDS011;47463;49.884;10.010;2023-02-18T07:55:00;15.3;;;9.1;;
61570;SDS011;47463;49.884;10.010;2023-02-18T08:00:00;15.3;;;9.1;;
61570;SDS011;47463;49.884;10.010;2023-02-18T08:05:00;16.2;;;9.1;;
61570;SDS011;47463;49.884;10.010;2023-02-18T08:10:00;11.5;;;7.9;;
61570;SDS011;47463;49.884;10.010;2023-02-18T08:15:00;10.3;;;7.4;;
61570;SDS011;47463;49.884;10.010;2023-02-18T08:20:00;9.5;;;7.3;;
61570;SDS011;47463;49.884;10.010;2023-02-18T08:25:00;10.6;;;8.3;;
61570;SDS011;47463;49.884;10.010;2023-02-18T08:30:00;10.6;;;8.3;;
61570;SDS011;47463;49.884;10.010;2023-02-18T08:35:00;10.5;;;8.5;;
61570;SDS011;47463;49.884;10.010;2023-02-18T08:40:00;11.9;;;9;;
61570;SDS011;47463;49.884;10.010;2023-02-18T08:45:00;11.6;;;8.6;;
61570;SDS011;47463;49.884;10.010;2023-02-18T08:50:00;6.7;;;11.9;;
61570;SDS011;47463;49.884;10.010;2023-02-18T08:55:00;6.7;;;11.9;;
61570;SDS011;47463;49.884;10.010;2023-02-18T09:00:00;10.6;;;13.7;;
61570;SDS011;47463;49.884;10.010;2023-02-18T09:05:00;10.3;;;13.3;;
61570;SDS011;47463;49.884;10.010;2023-02-18T09:10:00;10.1;;;13.6;;
61570;SDS011;47463;49.884;10.010;2023-02-18T09:15:00;9.7;;;13.5;;
61570;SDS011;47463;49.884;10.010;2023-02-18T09:20:00;9.7;;;13.5;;
61570;SDS011;47463;49.884;10.010;2023-02-18T09:25:00;9.7;;;13.5;;
61570;SDS011;47463;49.884;10.010;2023-02-18T09:30:00;8;;;12.3;;
61570;SDS011;47463;49.884;10.010;2023-02-18T09:35:00;8.3;;;11.8;;
61570;SDS011;47463;49.884;10.010;2023-02-18T09:40:00;8.9;;;12.5;;
61570;SDS011;47463;49.884;10.010;2023-02-18T09:45:00;9.2;;;12.7;;
61570;SDS011;47463;49.884;10.010;2023-02-18T09:50:05;9.3;;;12.6;;
61570;SDS011;47463;49.884;10.010;2023-02-18T09:55:00;9.3;;;12.6;;
61570;SDS011;47463;49.884;10.010;2023-02-18T10:00:00;10.2;;;12.8;;
61570;SDS011;47463;49.884;10.010;2023-02-18T10:05:00;7.5;;;11.6;;
61570;SDS011;47463;49.884;10.010;2023-02-18T10:10:00;8.2;;;12;;
61570;SDS011;47463;49.884;10.010;2023-02-18T10:15:00;7;;;11.5;;
61570;SDS011;47463;49.884;10.010;2023-02-18T10:20:00;7.5;;;11.7;;
61570;SDS011;47463;49.884;10.010;2023-02-18T10:25:00;7.5;;;11.7;;
61570;SDS011;47463;49.884;10.010;2023-02-18T10:30:01;7.8;;;11.9;;
61570;SDS011;47463;49.884;10.010;2023-02-18T10:35:02;8.9;;;11.8;;
61570;SDS011;47463;49.884;10.010;2023-02-18T10:40:02;7.7;;;11.5;;
61570;SDS011;47463;49.884;10.010;2023-02-18T10:45:03;8.1;;;11.6;;
61570;SDS011;47463;49.884;10.010;2023-02-18T10:50:00;8.8;;;11.8;;
61570;SDS011;47463;49.884;10.010;2023-02-18T10:55:00;8.8;;;11.8;;
61570;SDS011;47463;49.884;10.010;2023-02-18T11:00:00;8.9;;;11.3;;
61570;SDS011;47463;49.884;10.010;2023-02-18T11:05:00;7.1;;;11.4;;
61570;SDS011;47463;49.884;10.010;2023-02-18T11:10:00;9;;;10.9;;
61570;SDS011;47463;49.884;10.010;2023-02-18T11:15:05;6.9;;;11.1;;
61570;SDS011;47463;49.884;10.010;2023-02-18T11:20:00;6.8;;;10.9;;
61570;SDS011;47463;49.884;10.010;2023-02-18T11:25:00;6.8;;;10.9;;
61570;SDS011;47463;49.884;10.010;2023-02-18T11:30:01;6.3;;;11.2;;
61570;SDS011;47463;49.884;10.010;2023-02-18T11:35:00;7.6;;;11;;
61570;SDS011;47463;49.884;10.010;2023-02-18T11:40:00;5.9;;;10.5;;
61570;SDS011;47463;49.884;10.010;2023-02-18T11:45:00;5.2;;;10.6;;
61570;SDS011;47463;49.884;10.010;2023-02-18T11:50:03;6.7;;;10.9;;
61570;SDS011;47463;49.884;10.010;2023-02-18T11:55:00;6.7;;;10.9;;
61570;SDS011;47463;49.884;10.010;2023-02-18T12:00:00;6.3;;;11.1;;
61570;SDS011;47463;49.884;10.010;2023-02-18T12:05:00;7.1;;;11;;
61570;SDS011;47463;49.884;10.010;2023-02-18T12:10:02;5.2;;;10.4;;
61570;SDS011;47463;49.884;10.010;2023-02-18T12:15:00;6.7;;;10.4;;
61570;SDS011;47463;49.884;10.010;2023-02-18T12:20:03;5.5;;;10.2;;
61570;SDS011;47463;49.884;10.010;2023-02-18T12:25:03;5.5;;;10.2;;
61570;SDS011;47463;49.884;10.010;2023-02-18T12:30:05;5;;;10.1;;
61570;SDS011;47463;49.884;10.010;2023-02-18T12:35:06;5.4;;;10;;
61570;SDS011;47463;49.884;10.010;2023-02-18T12:40:02;4.4;;;9.6;;
61570;SDS011;47463;49.884;10.010;2023-02-18T12:45:03;5.2;;;9.8;;
61570;SDS011;47463;49.884;10.010;2023-02-18T12:50:02;5;;;10.2;;
61570;SDS011;47463;49.884;10.010;2023-02-18T12:55:07;5;;;10.2;;
61570;SDS011;47463;49.884;10.010;2023-02-18T13:00:10;4.3;;;9.7;;
61570;SDS011;47463;49.884;10.010;2023-02-18T13:05:02;4.5;;;9.1;;
61570;SDS011;47463;49.884;10.010;2023-02-18T13:10:06;4.5;;;9.3;;
61570;SDS011;47463;49.884;10.010;2023-02-18T13:15:00;4.6;;;9.3;;
61570;SDS011;47463;49.884;10.010;2023-02-18T13:20:00;3.9;;;9;;
61570;SDS011;47463;49.884;10.010;2023-02-18T13:25:00;3.9;;;9;;
61570;SDS011;47463;49.884;10.010;2023-02-18T13:30:06;4;;;8.9;;
61570;SDS011;47463;49.884;10.010;2023-02-18T13:35:01;2.9;;;8.9;;
61570;SDS011;47463;49.884;10.010;2023-02-18T13:40:00;3.8;;;8.8;;
61570;SDS011;47463;49.884;10.010;2023-02-18T13:45:02;4.1;;;8.9;;
61570;SDS011;47463;49.884;10.010;2023-02-18T13:50:12;4.1;;;8.9;;
61570;SDS011;47463;49.884;10.010;2023-02-18T13:55:00;4.1;;;8.9;;
61570;SDS011;47463;49.884;10.010;2023-02-18T14:00:03;3;;;8.6;;
61570;SDS011;47463;49.884;10.010;2023-02-18T14:05:13;3.5;;;8.7;;
61570;SDS011;47463;49.884;10.010;2023-02-18T14:10:00;3.1;;;8.8;;
61570;SDS011;47463;49.884;10.010;2023-02-18T14:15:00;4.9;;;9.1;;
61570;SDS011;47463;49.884;10.010;2023-02-18T14:20:41;4.1;;;8.9;;
61570;SDS011;47463;49.884;10.010;2023-02-18T14:25:01;4.1;;;8.9;;
61570;SDS011;47463;49.884;10.010;2023-02-18T14:30:02;4.1;;;9;;
61570;SDS011;47463;49.884;10.010;2023-02-18T14:35:05;3.7;;;8.8;;
61570;SDS011;47463;49.884;10.010;2023-02-18T14:40:02;3.1;;;8.8;;
61570;SDS011;47463;49.884;10.010;2023-02-18T14:45:03;5;;;9;;
61570;SDS011;47463;49.884;10.010;2023-02-18T14:50:00;4;;;8.9;;
61570;SDS011;47463;49.884;10.010;2023-02-18T14:55:00;4;;;8.9;;
61570;SDS011;47463;49.884;10.010;2023-02-18T15:00:00;4.9;;;9.6;;
61570;SDS011;47463;49.884;10.010;2023-02-18T15:05:16;5.5;;;9.8;;
61570;SDS011;47463;49.884;10.010;2023-02-18T15:10:00;5.5;;;10;;
61570;SDS011;47463;49.884;10.010;2023-02-18T15:15:01;6.6;;;10.5;;
61570;SDS011;47463;49.884;10.010;2023-02-18T15:20:02;6.4;;;10.3;;
61570;SDS011;47463;49.884;10.010;2023-02-18T15:25:00;6.4;;;10.3;;
61570;SDS011;47463;49.884;10.010;2023-02-18T15:30:03;6.4;;;10;;
61570;SDS011;47463;49.884;10.010;2023-02-18T15:35:00;6;;;9.9;;
61570;SDS011;47463;49.884;10.010;2023-02-18T15:40:00;4.3;;;9.8;;
61570;SDS011;47463;49.884;10.010;2023-02-18T15:45:02;5.4;;;9.8;;
61570;SDS011;47463;49.884;10.010;2023-02-18T15:50:00;4.5;;;9.8;;
61570;SDS011;47463;49.884;10.010;2023-02-18T15:55:00;4.5;;;9.8;;
61570;SDS011;47463;49.884;10.010;2023-02-18T16:00:02;4.7;;;9.7;;
61570;SDS011;47463;49.884;10.010;2023-02-18T16:05:01;6.3;;;9.7;;
61570;SDS011;47463;49.884;10.010;2023-02-18T16:10:09;5.5;;;9.8;;
61570;SDS011;47463;49.884;10.010;2023-02-18T16:15:00;6.1;;;9.6;;
61570;SDS011;47463;49.884;10.010;2023-02-18T16:20:00;4.8;;;9.7;;
61570;SDS011;47463;49.884;10.010;2023-02-18T16:25:00;4.8;;;9.7;;
61570;SDS011;47463;49.884;10.010;2023-02-18T16:30:00;6;;;10.2;;
61570;SDS011;47463;49.884;10.010;2023-02-18T16:35:00;6.4;;;10.1;;
61570;SDS011;47463;49.884;10.010;2023-02-18T16:40:00;8.7;;;10.6;;
61570;SDS011;47463;49.884;10.010;2023-02-18T16:45:00;6;;;9.9;;
61570;SDS011;47463;49.884;10.010;2023-02-18T16:50:00;7.3;;;10.8;;
61570;SDS011;47463;49.884;10.010;2023-02-18T16:55:00;7.3;;;10.8;;
61570;SDS011;47463;49.884;10.010;2023-02-18T17:00:00;6.5;;;10.5;;
61570;SDS011;47463;49.884;10.010;2023-02-18T17:05:00;6.9;;;10.6;;
61570;SDS011;47463;49.884;10.010;2023-02-18T17:10:00;6.4;;;10.8;;
61570;SDS011;47463;49.884;10.010;2023-02-18T17:15:00;6.6;;;10.9;;
61570;SDS011;47463;49.884;10.010;2023-02-18T17:20:00;6.1;;;10.9;;
61570;SDS011;47463;49.884;10.010;2023-02-18T17:25:00;6.1;;;10.9;;
61570;SDS011;47463;49.884;10.010;2023-02-18T17:30:00;6.6;;;10.7;;
61570;SDS011;47463;49.884;10.010;2023-02-18T17:35:00;5.7;;;10.7;;
61570;SDS011;47463;49.884;10.010;2023-02-18T17:40:00;7.2;;;10.9;;
61570;SDS011;47463;49.884;10.010;2023-02-18T17:45:00;7;;;10.9;;
61570;SDS011;47463;49.884;10.010;2023-02-18T17:50:00;6.9;;;10.9;;
61570;SDS011;47463;49.884;10.010;2023-02-18T17:55:00;6.9;;;10.9;;
61570;SDS011;47463;49.884;10.010;2023-02-18T18:00:00;7.5;;;11.5;;
61570;SDS011;47463;49.884;10.010;2023-02-18T18:05:00;8.4;;;11.4;;
61570;SDS011;47463;49.884;10.010;2023-02-18T18:10:00;8.6;;;11.2;;
61570;SDS011;47463;49.884;10.010;2023-02-18T18:15:00;6.7;;;11.3;;
61570;SDS011;47463;49.884;10.010;2023-02-18T18:20:00;7.6;;;11.5;;
61570;SDS011;47463;49.884;10.010;2023-02-18T18:25:00;7.6;;;11.5;;
61570;SDS011;47463;49.884;10.010;2023-02-18T18:30:00;7.5;;;11.7;;
61570;SDS011;47463;49.884;10.010;2023-02-18T18:35:00;7;;;11.3;;
61570;SDS011;47463;49.884;10.010;2023-02-18T18:40:00;5.6;;;11;;
61570;SDS011;47463;49.884;10.010;2023-02-18T18:45:00;6.4;;;10.8;;
61570;SDS011;47463;49.884;10.010;2023-02-18T18:50:00;7.8;;;10.9;;
61570;SDS011;47463;49.884;10.010;2023-02-18T18:55:00;7.8;;;10.9;;
61570;SDS011;47463;49.884;10.010;2023-02-18T19:00:00;5.7;;;10.4;;
61570;SDS011;47463;49.884;10.010;2023-02-18T19:05:00;6.2;;;10.4;;
61570;SDS011;47463;49.884;10.010;2023-02-18T19:10:00;6.5;;;10.2;;
61570;SDS011;47463;49.884;10.010;2023-02-18T19:15:00;3.4;;;9.3;;
61570;SDS011;47463;49.884;10.010;2023-02-18T19:20:00;5.3;;;10.1;;
61570;SDS011;47463;49.884;10.010;2023-02-18T19:25:00;5.3;;;10.1;;
61570;SDS011;47463;49.884;10.010;2023-02-18T19:30:00;4.6;;;9.8;;
61570;SDS011;47463;49.884;10.010;2023-02-18T19:35:00;4.4;;;9.5;;
61570;SDS011;47463;49.884;10.010;2023-02-18T19:40:00;4.8;;;10;;
61570;SDS011;47463;49.884;10.010;2023-02-18T19:45:00;5.9;;;10.1;;
61570;SDS011;47463;49.884;10.010;2023-02-18T19:50:00;4.9;;;10.1;;
61570;SDS011;47463;49.884;10.010;2023-02-18T19:55:00;4.9;;;10.1;;
61570;SDS011;47463;49.884;10.010;2023-02-18T20:00:00;4.2;;;9.8;;
61570;SDS011;47463;49.884;10.010;2023-02-18T20:05:00;4.9;;;10;;
61570;SDS011;47463;49.884;10.010;2023-02-18T20:10:00;5.3;;;9.8;;
61570;SDS011;47463;49.884;10.010;2023-02-18T20:15:00;6.5;;;10.1;;
61570;SDS011;47463;49.884;10.010;2023-02-18T20:20:00;6.7;;;10.2;;
61570;SDS011;47463;49.884;10.010;2023-02-18T20:25:00;6.7;;;10.2;;
61570;SDS011;47463;49.884;10.010;2023-02-18T20:30:00;5.9;;;10.3;;
61570;SDS011;47463;49.884;10.010;2023-02-18T20:35:00;4.9;;;10.1;;
61570;SDS011;47463;49.884;10.010;2023-02-18T20:40:00;6.2;;;10.6;;
61570;SDS011;47463;49.884;10.010;2023-02-18T20:45:00;6.5;;;10.9;;
61570;SDS011;47463;49.884;10.010;2023-02-18T20:50:00;6.4;;;10.3;;
61570;SDS011;47463;49.884;10.010;2023-02-18T20:55:00;6.4;;;10.3;;
61570;SDS011;47463;49.884;10.010;2023-02-18T21:00:00;5.5;;;10.7;;
61570;SDS011;47463;49.884;10.010;2023-02-18T21:05:00;6.1;;;10.6;;
61570;SDS011;47463;49.884;10.010;2023-02-18T21:10:00;5.7;;;10.8;;
61570;SDS011;47463;49.884;10.010;2023-02-18T21:15:00;5.6;;;10.6;;
61570;SDS011;47463;49.884;10.010;2023-02-18T21:20:00;5.9;;;10.7;;
61570;SDS011;47463;49.884;10.010;2023-02-18T21:25:00;5.9;;;10.7;;
61570;SDS011;47463;49.884;10.010;2023-02-18T21:30:00;6.4;;;11.1;;
61570;SDS011;47463;49.884;10.010;2023-02-18T21:35:00;5.2;;;10.6;;
61570;SDS011;47463;49.884;10.010;2023-02-18T21:40:00;6.9;;;11.3;;
61570;SDS011;47463;49.884;10.010;2023-02-18T21:45:00;6.9;;;11.2;;
61570;SDS011;47463;49.884;10.010;2023-02-18T21:50:00;5.5;;;10.7;;
61570;SDS011;47463;49.884;10.010;2023-02-18T21:55:00;5.5;;;10.7;;
61570;SDS011;47463;49.884;10.010;2023-02-18T22:00:00;6;;;10.8;;
61570;SDS011;47463;49.884;10.010;2023-02-18T22:05:00;6.4;;;11;;
61570;SDS011;47463;49.884;10.010;2023-02-18T22:10:00;7.1;;;11.4;;
61570;SDS011;47463;49.884;10.010;2023-02-18T22:15:00;7.5;;;11.3;;
61570;SDS011;47463;49.884;10.010;2023-02-18T22:20:00;6.9;;;11.5;;
61570;SDS011;47463;49.884;10.010;2023-02-18T22:25:00;6.9;;;11.5;;
61570;SDS011;47463;49.884;10.010;2023-02-18T22:30:00;6.8;;;10.9;;
61570;SDS011;47463;49.884;10.010;2023-02-18T22:35:00;9.5;;;11.9;;
61570;SDS011;47463;49.884;10.010;2023-02-18T22:40:00;6.4;;;11.2;;
61570;SDS011;47463;49.884;10.010;2023-02-18T22:45:00;7.3;;;11.5;;
61570;SDS011;47463;49.884;10.010;2023-02-18T22:50:00;7.2;;;11.5;;
61570;SDS011;47463;49.884;10.010;2023-02-18T22:55:00;7.2;;;11.5;;
61570;SDS011;47463;49.884;10.010;2023-02-18T23:00:00;8.6;;;11.8;;
61570;SDS011;47463;49.884;10.010;2023-02-18T23:05:00;8.5;;;11.9;;
61570;SDS011;47463;49.884;10.010;2023-02-18T23:10:00;5.9;;;11.4;;
61570;SDS011;47463;49.884;10.010;2023-02-18T23:15:00;7.6;;;11.4;;
61570;SDS011;47463;49.884;10.010;2023-02-18T23:20:00;8.1;;;11.3;;
61570;SDS011;47463;49.884;10.010;2023-02-18T23:25:00;8.1;;;11.3;;
61570;SDS011;47463;49.884;10.010;2023-02-18T23:30:00;7.9;;;11.8;;
61570;SDS011;47463;49.884;10.010;2023-02-18T23:35:00;7.2;;;11.6;;
61570;SDS011;47463;49.884;10.010;2023-02-18T23:40:00;6.2;;;10.8;;
61570;SDS011;47463;49.884;10.010;2023-02-18T23:45:00;6.2;;;10.7;;
61570;SDS011;47463;49.884;10.010;2023-02-18T23:50:00;7.7;;;11.5;;
61570;SDS011;47463;49.884;10.010;2023-02-18T23:55:00;7.7;;;11.5;;
